Terminal Aerodrome Forecast
Issued by NWS

Home | Current Version | Previous Version | Graphics & Text | Print | Product List | Glossary On
Versions: 1 2 3 4 5 6 7 8 9 10 11 12 13 14 15 16 17 18
263
FTUS43 KIWX 201124
TAFSBN
TAF
KSBN 201124Z 2012/2112 20014G22KT 2SM RA SCT007 OVC025
      WS020/22045KT
      TEMPO 2012/2016 1SM +RA VV008
     FM201600 20014G24KT 2SM RA OVC008 WS020/22045KT
     FM210200 25010G18KT 1SM RA OVC005=

USA.gov is the U.S. government's official web portal to all federal, state and local government web resources and services.